Terminal Aerodrome Forecast
Issued by NWS Charleston, WV

Current Version | Previous Version | Graphics & Text | Print | Product List | Glossary On
Versions: 1 2 3 4 5 6 7 8 9 10 11 12 13 14 15 16 17 18 19 20 21 22 23 24 25 26 27 28
000
FTUS41 KRLX 232300
TAFEKN
TAF
KEKN 232320Z 2400/2424 29012G19KT P6SM BKN050
     FM240300 30008KT P6SM BKN035
     FM240700 29004KT P6SM SCT035
     FM241000 29007KT P6SM SCT250
     FM241800 29012KT P6SM SCT035=

USA.gov is the U.S. government's official web portal to all federal, state and local government web resources and services.